sensor_id;sensor_type;location;lat;lon;timestamp;temperature;humidity
32446;DHT22;18899;50.748;7.102;2023-02-24T00:00:42;8.60;99.90
32446;DHT22;18899;50.748;7.102;2023-02-24T00:03:15;8.60;99.90
32446;DHT22;18899;50.748;7.102;2023-02-24T00:05:41;8.90;99.90
32446;DHT22;18899;50.748;7.102;2023-02-24T00:08:09;9.20;99.90
32446;DHT22;18899;50.748;7.102;2023-02-24T00:10:35;9.20;99.90
32446;DHT22;18899;50.748;7.102;2023-02-24T00:13:01;9.10;99.90
32446;DHT22;18899;50.748;7.102;2023-02-24T00:15:27;8.90;99.90
32446;DHT22;18899;50.748;7.102;2023-02-24T00:17:53;8.90;99.90
32446;DHT22;18899;50.748;7.102;2023-02-24T00:20:19;8.70;99.90
32446;DHT22;18899;50.748;7.102;2023-02-24T00:22:45;8.70;99.90
32446;DHT22;18899;50.748;7.102;2023-02-24T00:25:10;8.80;99.90
32446;DHT22;18899;50.748;7.102;2023-02-24T00:27:38;9.10;99.90
32446;DHT22;18899;50.748;7.102;2023-02-24T00:30:05;9.10;99.90
32446;DHT22;18899;50.748;7.102;2023-02-24T00:32:31;9.20;99.90
32446;DHT22;18899;50.748;7.102;2023-02-24T00:34:57;8.90;99.90
32446;DHT22;18899;50.748;7.102;2023-02-24T00:37:22;8.80;99.90
32446;DHT22;18899;50.748;7.102;2023-02-24T00:39:49;8.70;99.90
32446;DHT22;18899;50.748;7.102;2023-02-24T00:42:15;8.60;99.90
32446;DHT22;18899;50.748;7.102;2023-02-24T00:44:45;8.50;99.90
32446;DHT22;18899;50.748;7.102;2023-02-24T00:47:12;8.40;99.90
32446;DHT22;18899;50.748;7.102;2023-02-24T00:49:39;8.50;99.90
32446;DHT22;18899;50.748;7.102;2023-02-24T00:52:08;8.40;99.90
32446;DHT22;18899;50.748;7.102;2023-02-24T00:54:35;8.40;99.90
32446;DHT22;18899;50.748;7.102;2023-02-24T00:57:01;8.40;99.90
32446;DHT22;18899;50.748;7.102;2023-02-24T00:59:27;8.40;99.90
32446;DHT22;18899;50.748;7.102;2023-02-24T01:01:53;8.60;99.90
32446;DHT22;18899;50.748;7.102;2023-02-24T01:04:19;8.60;99.90
32446;DHT22;18899;50.748;7.102;2023-02-24T01:06:48;8.50;99.90
32446;DHT22;18899;50.748;7.102;2023-02-24T01:09:16;8.70;99.90
32446;DHT22;18899;50.748;7.102;2023-02-24T01:11:43;8.70;99.90
32446;DHT22;18899;50.748;7.102;2023-02-24T01:14:30;8.80;99.90
32446;DHT22;18899;50.748;7.102;2023-02-24T01:16:57;8.80;99.90
32446;DHT22;18899;50.748;7.102;2023-02-24T01:19:25;8.70;99.90
32446;DHT22;18899;50.748;7.102;2023-02-24T01:21:59;8.80;99.90
32446;DHT22;18899;50.748;7.102;2023-02-24T01:24:26;8.80;99.90
32446;DHT22;18899;50.748;7.102;2023-02-24T01:26:52;8.80;99.90
32446;DHT22;18899;50.748;7.102;2023-02-24T01:29:18;8.80;99.90
32446;DHT22;18899;50.748;7.102;2023-02-24T01:31:44;8.90;99.90
32446;DHT22;18899;50.748;7.102;2023-02-24T01:34:11;9.00;99.90
32446;DHT22;18899;50.748;7.102;2023-02-24T01:36:39;9.20;99.90
32446;DHT22;18899;50.748;7.102;2023-02-24T01:39:05;9.10;99.90
32446;DHT22;18899;50.748;7.102;2023-02-24T01:41:38;8.80;99.90
32446;DHT22;18899;50.748;7.102;2023-02-24T01:46:57;8.50;99.90
32446;DHT22;18899;50.748;7.102;2023-02-24T01:49:35;8.40;99.90
32446;DHT22;18899;50.748;7.102;2023-02-24T01:52:11;8.40;99.90
32446;DHT22;18899;50.748;7.102;2023-02-24T01:54:45;8.20;99.90
32446;DHT22;18899;50.748;7.102;2023-02-24T01:57:17;8.10;99.90
32446;DHT22;18899;50.748;7.102;2023-02-24T01:59:47;8.10;99.90
32446;DHT22;18899;50.748;7.102;2023-02-24T02:02:14;8.00;99.90
32446;DHT22;18899;50.748;7.102;2023-02-24T02:04:48;8.00;99.90
32446;DHT22;18899;50.748;7.102;2023-02-24T02:07:17;8.00;99.90
32446;DHT22;18899;50.748;7.102;2023-02-24T02:09:46;7.90;99.90
32446;DHT22;18899;50.748;7.102;2023-02-24T02:12:13;7.80;99.90
32446;DHT22;18899;50.748;7.102;2023-02-24T02:14:45;7.80;99.90
32446;DHT22;18899;50.748;7.102;2023-02-24T02:17:35;7.70;99.90
32446;DHT22;18899;50.748;7.102;2023-02-24T02:26:07;7.50;99.90
32446;DHT22;18899;50.748;7.102;2023-02-24T02:29:07;7.40;99.90
32446;DHT22;18899;50.748;7.102;2023-02-24T02:34:53;7.50;99.90
32446;DHT22;18899;50.748;7.102;2023-02-24T02:40:09;7.30;99.90
32446;DHT22;18899;50.748;7.102;2023-02-24T02:42:56;7.20;99.90
32446;DHT22;18899;50.748;7.102;2023-02-24T02:45:43;7.10;99.90
32446;DHT22;18899;50.748;7.102;2023-02-24T02:48:18;7.00;99.90
32446;DHT22;18899;50.748;7.102;2023-02-24T02:50:52;7.00;99.90
32446;DHT22;18899;50.748;7.102;2023-02-24T02:53:44;7.00;99.90
32446;DHT22;18899;50.748;7.102;2023-02-24T02:56:27;7.00;99.90
32446;DHT22;18899;50.748;7.102;2023-02-24T02:58:55;7.10;99.90
32446;DHT22;18899;50.748;7.102;2023-02-24T03:01:25;7.00;99.90
32446;DHT22;18899;50.748;7.102;2023-02-24T03:03:58;7.00;99.90
32446;DHT22;18899;50.748;7.102;2023-02-24T03:06:32;7.00;99.90
32446;DHT22;18899;50.748;7.102;2023-02-24T03:09:05;7.00;99.90
32446;DHT22;18899;50.748;7.102;2023-02-24T03:11:45;6.90;99.90
32446;DHT22;18899;50.748;7.102;2023-02-24T03:14:19;6.90;99.90
32446;DHT22;18899;50.748;7.102;2023-02-24T03:16:47;6.90;99.90
32446;DHT22;18899;50.748;7.102;2023-02-24T03:19:17;6.90;99.90
32446;DHT22;18899;50.748;7.102;2023-02-24T03:21:49;6.90;99.90
32446;DHT22;18899;50.748;7.102;2023-02-24T03:24:16;6.90;99.90
32446;DHT22;18899;50.748;7.102;2023-02-24T03:26:46;6.90;99.90
32446;DHT22;18899;50.748;7.102;2023-02-24T03:31:58;6.80;99.90
32446;DHT22;18899;50.748;7.102;2023-02-24T03:37:31;6.90;99.90
32446;DHT22;18899;50.748;7.102;2023-02-24T03:40:00;7.00;99.90
32446;DHT22;18899;50.748;7.102;2023-02-24T03:42:33;7.00;99.90
32446;DHT22;18899;50.748;7.102;2023-02-24T03:44:59;7.20;99.90
32446;DHT22;18899;50.748;7.102;2023-02-24T03:47:25;7.20;99.90
32446;DHT22;18899;50.748;7.102;2023-02-24T03:49:51;7.10;99.90
32446;DHT22;18899;50.748;7.102;2023-02-24T04:00:11;7.10;99.90
32446;DHT22;18899;50.748;7.102;2023-02-24T04:03:27;7.10;99.90
32446;DHT22;18899;50.748;7.102;2023-02-24T04:08:53;7.00;99.90
32446;DHT22;18899;50.748;7.102;2023-02-24T04:11:53;7.00;99.90
32446;DHT22;18899;50.748;7.102;2023-02-24T04:14:33;7.10;99.90
32446;DHT22;18899;50.748;7.102;2023-02-24T04:19:44;7.50;99.90
32446;DHT22;18899;50.748;7.102;2023-02-24T04:22:13;7.40;99.90
32446;DHT22;18899;50.748;7.102;2023-02-24T04:24:43;7.40;99.90
32446;DHT22;18899;50.748;7.102;2023-02-24T04:27:11;7.40;99.90
32446;DHT22;18899;50.748;7.102;2023-02-24T04:29:42;7.30;99.90
32446;DHT22;18899;50.748;7.102;2023-02-24T04:32:13;7.40;99.90
32446;DHT22;18899;50.748;7.102;2023-02-24T04:34:40;7.50;99.90
32446;DHT22;18899;50.748;7.102;2023-02-24T04:37:06;7.30;99.90
32446;DHT22;18899;50.748;7.102;2023-02-24T04:39:32;7.10;99.90
32446;DHT22;18899;50.748;7.102;2023-02-24T04:41:58;7.40;99.90
32446;DHT22;18899;50.748;7.102;2023-02-24T04:44:26;7.50;99.90
32446;DHT22;18899;50.748;7.102;2023-02-24T04:46:52;7.40;99.90
32446;DHT22;18899;50.748;7.102;2023-02-24T04:49:18;7.50;99.90
32446;DHT22;18899;50.748;7.102;2023-02-24T04:51:45;7.40;99.90
32446;DHT22;18899;50.748;7.102;2023-02-24T04:54:12;7.20;99.90
32446;DHT22;18899;50.748;7.102;2023-02-24T04:56:42;7.10;99.90
32446;DHT22;18899;50.748;7.102;2023-02-24T04:59:09;7.10;99.90
32446;DHT22;18899;50.748;7.102;2023-02-24T05:01:36;7.10;99.90
32446;DHT22;18899;50.748;7.102;2023-02-24T05:04:05;7.30;99.90
32446;DHT22;18899;50.748;7.102;2023-02-24T05:06:31;7.60;99.90
32446;DHT22;18899;50.748;7.102;2023-02-24T05:08:57;7.40;99.90
32446;DHT22;18899;50.748;7.102;2023-02-24T05:11:22;7.40;99.90
32446;DHT22;18899;50.748;7.102;2023-02-24T05:13:48;7.40;99.90
32446;DHT22;18899;50.748;7.102;2023-02-24T05:16:15;7.20;99.90
32446;DHT22;18899;50.748;7.102;2023-02-24T05:18:41;7.20;99.90
32446;DHT22;18899;50.748;7.102;2023-02-24T05:21:11;7.40;99.90
32446;DHT22;18899;50.748;7.102;2023-02-24T05:23:56;7.60;99.90
32446;DHT22;18899;50.748;7.102;2023-02-24T05:26:24;7.60;99.90
32446;DHT22;18899;50.748;7.102;2023-02-24T05:28:52;7.40;99.90
32446;DHT22;18899;50.748;7.102;2023-02-24T05:31:28;7.40;99.90
32446;DHT22;18899;50.748;7.102;2023-02-24T05:34:00;7.60;99.90
32446;DHT22;18899;50.748;7.102;2023-02-24T05:36:30;7.50;99.90
32446;DHT22;18899;50.748;7.102;2023-02-24T05:38:56;7.60;99.90
32446;DHT22;18899;50.748;7.102;2023-02-24T05:41:35;7.40;99.90
32446;DHT22;18899;50.748;7.102;2023-02-24T05:44:06;7.30;99.90
32446;DHT22;18899;50.748;7.102;2023-02-24T05:46:37;7.40;99.90
32446;DHT22;18899;50.748;7.102;2023-02-24T05:49:05;7.60;99.90
32446;DHT22;18899;50.748;7.102;2023-02-24T05:51:36;7.70;99.90
32446;DHT22;18899;50.748;7.102;2023-02-24T05:54:05;7.60;99.90
32446;DHT22;18899;50.748;7.102;2023-02-24T05:56:32;7.50;99.90
32446;DHT22;18899;50.748;7.102;2023-02-24T05:59:00;7.40;99.90
32446;DHT22;18899;50.748;7.102;2023-02-24T06:01:33;7.40;99.90
32446;DHT22;18899;50.748;7.102;2023-02-24T06:04:03;7.20;99.90
32446;DHT22;18899;50.748;7.102;2023-02-24T06:06:34;7.00;99.90
32446;DHT22;18899;50.748;7.102;2023-02-24T06:09:04;7.00;99.90
32446;DHT22;18899;50.748;7.102;2023-02-24T06:11:35;7.10;99.90
32446;DHT22;18899;50.748;7.102;2023-02-24T06:14:02;7.00;99.90
32446;DHT22;18899;50.748;7.102;2023-02-24T06:16:32;7.20;99.90
32446;DHT22;18899;50.748;7.102;2023-02-24T06:18:58;7.40;99.90
32446;DHT22;18899;50.748;7.102;2023-02-24T06:21:24;7.40;99.90
32446;DHT22;18899;50.748;7.102;2023-02-24T06:23:58;7.30;99.90
32446;DHT22;18899;50.748;7.102;2023-02-24T06:26:24;7.10;99.90
32446;DHT22;18899;50.748;7.102;2023-02-24T06:28:55;6.80;99.90
32446;DHT22;18899;50.748;7.102;2023-02-24T06:31:21;6.60;99.90
32446;DHT22;18899;50.748;7.102;2023-02-24T06:33:47;6.70;99.90
32446;DHT22;18899;50.748;7.102;2023-02-24T06:36:13;6.60;99.90
32446;DHT22;18899;50.748;7.102;2023-02-24T06:38:39;6.50;99.90
32446;DHT22;18899;50.748;7.102;2023-02-24T06:41:06;6.50;99.90
32446;DHT22;18899;50.748;7.102;2023-02-24T06:43:39;6.40;99.90
32446;DHT22;18899;50.748;7.102;2023-02-24T06:46:06;6.50;99.90
32446;DHT22;18899;50.748;7.102;2023-02-24T06:48:32;6.50;99.90
32446;DHT22;18899;50.748;7.102;2023-02-24T06:51:11;6.70;99.90
32446;DHT22;18899;50.748;7.102;2023-02-24T06:53:43;6.70;99.90
32446;DHT22;18899;50.748;7.102;2023-02-24T06:56:11;6.70;99.90
32446;DHT22;18899;50.748;7.102;2023-02-24T06:58:43;6.70;99.90
32446;DHT22;18899;50.748;7.102;2023-02-24T07:01:19;6.70;99.90
32446;DHT22;18899;50.748;7.102;2023-02-24T07:03:45;6.80;99.90
32446;DHT22;18899;50.748;7.102;2023-02-24T07:06:32;6.60;99.90
32446;DHT22;18899;50.748;7.102;2023-02-24T07:09:00;6.50;99.90
32446;DHT22;18899;50.748;7.102;2023-02-24T07:11:27;6.70;99.90
32446;DHT22;18899;50.748;7.102;2023-02-24T07:13:53;6.90;99.90
32446;DHT22;18899;50.748;7.102;2023-02-24T07:16:21;7.10;99.90
32446;DHT22;18899;50.748;7.102;2023-02-24T07:18:55;7.20;99.90
32446;DHT22;18899;50.748;7.102;2023-02-24T07:21:22;7.30;99.90
32446;DHT22;18899;50.748;7.102;2023-02-24T07:23:48;7.30;99.90
32446;DHT22;18899;50.748;7.102;2023-02-24T07:26:16;7.30;99.90
32446;DHT22;18899;50.748;7.102;2023-02-24T07:28:43;7.30;99.90
32446;DHT22;18899;50.748;7.102;2023-02-24T07:31:12;7.40;99.90
32446;DHT22;18899;50.748;7.102;2023-02-24T07:33:38;7.50;99.90
32446;DHT22;18899;50.748;7.102;2023-02-24T07:36:09;7.50;99.90
32446;DHT22;18899;50.748;7.102;2023-02-24T07:38:36;7.70;99.90
32446;DHT22;18899;50.748;7.102;2023-02-24T07:41:04;7.80;99.90
32446;DHT22;18899;50.748;7.102;2023-02-24T07:43:32;7.70;99.90
32446;DHT22;18899;50.748;7.102;2023-02-24T07:46:07;7.50;99.90
32446;DHT22;18899;50.748;7.102;2023-02-24T07:48:34;7.30;99.90
32446;DHT22;18899;50.748;7.102;2023-02-24T07:51:04;7.50;99.90
32446;DHT22;18899;50.748;7.102;2023-02-24T07:53:30;7.60;99.90
32446;DHT22;18899;50.748;7.102;2023-02-24T07:55:55;7.60;99.90
32446;DHT22;18899;50.748;7.102;2023-02-24T07:58:21;7.60;99.90
32446;DHT22;18899;50.748;7.102;2023-02-24T08:00:47;7.60;99.90
32446;DHT22;18899;50.748;7.102;2023-02-24T08:03:25;7.70;99.90
32446;DHT22;18899;50.748;7.102;2023-02-24T08:05:56;7.70;99.90
32446;DHT22;18899;50.748;7.102;2023-02-24T08:08:30;7.40;99.90
32446;DHT22;18899;50.748;7.102;2023-02-24T08:10:56;7.40;99.90
32446;DHT22;18899;50.748;7.102;2023-02-24T08:13:28;7.40;99.90
32446;DHT22;18899;50.748;7.102;2023-02-24T08:16:04;7.50;99.90
32446;DHT22;18899;50.748;7.102;2023-02-24T08:18:29;7.70;99.90
32446;DHT22;18899;50.748;7.102;2023-02-24T08:21:01;7.70;99.90
32446;DHT22;18899;50.748;7.102;2023-02-24T08:23:29;7.50;99.90
32446;DHT22;18899;50.748;7.102;2023-02-24T08:26:01;7.70;99.90
32446;DHT22;18899;50.748;7.102;2023-02-24T08:28:27;7.80;99.90
32446;DHT22;18899;50.748;7.102;2023-02-24T08:30:52;8.00;99.90
32446;DHT22;18899;50.748;7.102;2023-02-24T08:33:20;8.10;99.90
32446;DHT22;18899;50.748;7.102;2023-02-24T08:35:51;8.30;99.90
32446;DHT22;18899;50.748;7.102;2023-02-24T08:38:18;8.40;99.90
32446;DHT22;18899;50.748;7.102;2023-02-24T08:40:47;8.80;99.90
32446;DHT22;18899;50.748;7.102;2023-02-24T08:43:30;8.80;99.90
32446;DHT22;18899;50.748;7.102;2023-02-24T08:46:25;8.90;99.90
32446;DHT22;18899;50.748;7.102;2023-02-24T08:53:50;8.10;99.90
32446;DHT22;18899;50.748;7.102;2023-02-24T08:56:22;8.00;99.90
32446;DHT22;18899;50.748;7.102;2023-02-24T08:58:56;7.90;99.90
32446;DHT22;18899;50.748;7.102;2023-02-24T09:01:27;8.20;99.90
32446;DHT22;18899;50.748;7.102;2023-02-24T09:03:59;8.60;99.90
32446;DHT22;18899;50.748;7.102;2023-02-24T09:09:00;8.80;99.90
32446;DHT22;18899;50.748;7.102;2023-02-24T09:14:27;8.90;99.90
32446;DHT22;18899;50.748;7.102;2023-02-24T09:16:55;8.40;99.90
32446;DHT22;18899;50.748;7.102;2023-02-24T09:19:42;8.40;99.90
32446;DHT22;18899;50.748;7.102;2023-02-24T09:22:11;8.40;99.90
32446;DHT22;18899;50.748;7.102;2023-02-24T09:25:06;8.50;99.90
32446;DHT22;18899;50.748;7.102;2023-02-24T09:28:30;8.70;99.90
32446;DHT22;18899;50.748;7.102;2023-02-24T09:31:13;8.40;99.90
32446;DHT22;18899;50.748;7.102;2023-02-24T09:33:41;8.60;99.90
32446;DHT22;18899;50.748;7.102;2023-02-24T09:36:17;8.70;99.90
32446;DHT22;18899;50.748;7.102;2023-02-24T09:38:56;8.80;99.90
32446;DHT22;18899;50.748;7.102;2023-02-24T09:41:41;8.90;99.90
32446;DHT22;18899;50.748;7.102;2023-02-24T09:44:48;8.80;99.90
32446;DHT22;18899;50.748;7.102;2023-02-24T09:47:24;8.80;99.90
32446;DHT22;18899;50.748;7.102;2023-02-24T09:52:56;9.00;99.90
32446;DHT22;18899;50.748;7.102;2023-02-24T10:07:12;8.70;99.90
32446;DHT22;18899;50.748;7.102;2023-02-24T10:09:48;8.40;99.90
32446;DHT22;18899;50.748;7.102;2023-02-24T10:12:16;8.50;99.90
32446;DHT22;18899;50.748;7.102;2023-02-24T10:14:55;8.70;99.90
32446;DHT22;18899;50.748;7.102;2023-02-24T10:17:42;8.80;99.90
32446;DHT22;18899;50.748;7.102;2023-02-24T10:20:20;8.80;99.90
32446;DHT22;18899;50.748;7.102;2023-02-24T10:23:18;8.70;99.90
32446;DHT22;18899;50.748;7.102;2023-02-24T10:26:31;8.60;99.90
32446;DHT22;18899;50.748;7.102;2023-02-24T10:29:06;8.70;99.90
32446;DHT22;18899;50.748;7.102;2023-02-24T10:31:46;8.80;99.90
32446;DHT22;18899;50.748;7.102;2023-02-24T10:34:15;9.00;99.90
32446;DHT22;18899;50.748;7.102;2023-02-24T10:36:51;9.40;99.90
32446;DHT22;18899;50.748;7.102;2023-02-24T10:39:19;9.30;99.90
32446;DHT22;18899;50.748;7.102;2023-02-24T10:41:53;9.50;99.90
32446;DHT22;18899;50.748;7.102;2023-02-24T10:44:26;9.20;99.90
32446;DHT22;18899;50.748;7.102;2023-02-24T10:47:02;9.20;99.90
32446;DHT22;18899;50.748;7.102;2023-02-24T10:52:11;9.20;99.90
32446;DHT22;18899;50.748;7.102;2023-02-24T10:54:57;9.40;99.90
32446;DHT22;18899;50.748;7.102;2023-02-24T10:57:41;9.50;99.90
32446;DHT22;18899;50.748;7.102;2023-02-24T11:00:18;9.60;99.90
32446;DHT22;18899;50.748;7.102;2023-02-24T11:02:55;9.40;99.90
32446;DHT22;18899;50.748;7.102;2023-02-24T11:05:41;9.60;99.90
32446;DHT22;18899;50.748;7.102;2023-02-24T11:08:25;9.70;99.90
32446;DHT22;18899;50.748;7.102;2023-02-24T11:11:18;9.50;99.90
32446;DHT22;18899;50.748;7.102;2023-02-24T11:13:51;9.80;99.90
32446;DHT22;18899;50.748;7.102;2023-02-24T11:16:50;9.90;99.90
32446;DHT22;18899;50.748;7.102;2023-02-24T11:19:44;9.80;99.90
32446;DHT22;18899;50.748;7.102;2023-02-24T11:22:18;9.70;99.90
32446;DHT22;18899;50.748;7.102;2023-02-24T11:24:45;9.80;99.90
32446;DHT22;18899;50.748;7.102;2023-02-24T11:27:11;9.60;99.90
32446;DHT22;18899;50.748;7.102;2023-02-24T11:35:24;9.00;99.90
32446;DHT22;18899;50.748;7.102;2023-02-24T11:38:01;9.00;99.90
32446;DHT22;18899;50.748;7.102;2023-02-24T11:40:39;9.00;99.90
32446;DHT22;18899;50.748;7.102;2023-02-24T11:43:12;9.20;99.90
32446;DHT22;18899;50.748;7.102;2023-02-24T11:45:47;9.30;99.90
32446;DHT22;18899;50.748;7.102;2023-02-24T11:48:19;9.50;99.90
32446;DHT22;18899;50.748;7.102;2023-02-24T11:53:45;9.10;99.90
32446;DHT22;18899;50.748;7.102;2023-02-24T11:56:33;8.90;99.90
32446;DHT22;18899;50.748;7.102;2023-02-24T11:59:11;8.90;99.90
32446;DHT22;18899;50.748;7.102;2023-02-24T12:04:33;8.90;99.90
32446;DHT22;18899;50.748;7.102;2023-02-24T12:07:11;8.90;99.90
32446;DHT22;18899;50.748;7.102;2023-02-24T12:10:09;9.00;99.90
32446;DHT22;18899;50.748;7.102;2023-02-24T12:12:51;8.80;99.90
32446;DHT22;18899;50.748;7.102;2023-02-24T12:21:03;8.60;99.90
32446;DHT22;18899;50.748;7.102;2023-02-24T12:23:34;8.60;99.90
32446;DHT22;18899;50.748;7.102;2023-02-24T12:34:26;9.00;99.90
32446;DHT22;18899;50.748;7.102;2023-02-24T12:43:08;8.30;99.90
32446;DHT22;18899;50.748;7.102;2023-02-24T12:51:11;8.00;99.90
32446;DHT22;18899;50.748;7.102;2023-02-24T12:56:22;7.60;99.90
32446;DHT22;18899;50.748;7.102;2023-02-24T12:58:51;7.60;99.90
32446;DHT22;18899;50.748;7.102;2023-02-24T13:01:21;7.50;99.90
32446;DHT22;18899;50.748;7.102;2023-02-24T13:03:53;7.60;99.90
32446;DHT22;18899;50.748;7.102;2023-02-24T13:06:28;7.70;99.90
32446;DHT22;18899;50.748;7.102;2023-02-24T13:12:15;7.20;99.90
32446;DHT22;18899;50.748;7.102;2023-02-24T13:14:44;7.30;99.90
32446;DHT22;18899;50.748;7.102;2023-02-24T13:19:36;7.70;99.90
32446;DHT22;18899;50.748;7.102;2023-02-24T13:22:06;7.50;99.90
32446;DHT22;18899;50.748;7.102;2023-02-24T13:24:33;7.60;99.90
32446;DHT22;18899;50.748;7.102;2023-02-24T13:29:48;7.80;99.90
32446;DHT22;18899;50.748;7.102;2023-02-24T13:32:44;7.70;99.90
32446;DHT22;18899;50.748;7.102;2023-02-24T13:37:40;7.50;99.90
32446;DHT22;18899;50.748;7.102;2023-02-24T13:45:22;7.50;99.90
32446;DHT22;18899;50.748;7.102;2023-02-24T13:51:09;7.50;99.90
32446;DHT22;18899;50.748;7.102;2023-02-24T13:56:42;7.00;99.90
32446;DHT22;18899;50.748;7.102;2023-02-24T14:04:35;7.20;99.90
32446;DHT22;18899;50.748;7.102;2023-02-24T14:07:16;7.00;99.90
32446;DHT22;18899;50.748;7.102;2023-02-24T14:09:46;7.00;99.90
32446;DHT22;18899;50.748;7.102;2023-02-24T14:12:25;7.30;99.90
32446;DHT22;18899;50.748;7.102;2023-02-24T14:14:52;7.50;99.90
32446;DHT22;18899;50.748;7.102;2023-02-24T14:17:52;7.30;99.90
32446;DHT22;18899;50.748;7.102;2023-02-24T14:20:19;7.20;99.90
32446;DHT22;18899;50.748;7.102;2023-02-24T14:22:48;7.30;99.90
32446;DHT22;18899;50.748;7.102;2023-02-24T14:25:14;7.40;99.90
32446;DHT22;18899;50.748;7.102;2023-02-24T14:27:42;7.50;99.90
32446;DHT22;18899;50.748;7.102;2023-02-24T14:32:47;7.40;99.90
32446;DHT22;18899;50.748;7.102;2023-02-24T14:35:25;7.30;99.90
32446;DHT22;18899;50.748;7.102;2023-02-24T14:37:52;7.50;99.90
32446;DHT22;18899;50.748;7.102;2023-02-24T14:40:17;7.80;99.90
32446;DHT22;18899;50.748;7.102;2023-02-24T14:42:48;7.80;99.90
32446;DHT22;18899;50.748;7.102;2023-02-24T14:45:20;7.60;99.90
32446;DHT22;18899;50.748;7.102;2023-02-24T14:47:46;7.40;99.90
32446;DHT22;18899;50.748;7.102;2023-02-24T14:50:21;7.30;99.90
32446;DHT22;18899;50.748;7.102;2023-02-24T14:52:50;7.10;99.90
32446;DHT22;18899;50.748;7.102;2023-02-24T14:55:30;7.10;99.90
32446;DHT22;18899;50.748;7.102;2023-02-24T15:00:50;7.20;99.90
32446;DHT22;18899;50.748;7.102;2023-02-24T15:03:44;7.30;99.90
32446;DHT22;18899;50.748;7.102;2023-02-24T15:06:25;7.50;99.90
32446;DHT22;18899;50.748;7.102;2023-02-24T15:09:02;7.40;99.90
32446;DHT22;18899;50.748;7.102;2023-02-24T15:11:30;7.20;99.90
32446;DHT22;18899;50.748;7.102;2023-02-24T15:14:00;7.30;99.90
32446;DHT22;18899;50.748;7.102;2023-02-24T15:19:02;7.50;99.90
32446;DHT22;18899;50.748;7.102;2023-02-24T15:21:31;7.30;99.90
32446;DHT22;18899;50.748;7.102;2023-02-24T15:24:02;7.10;99.90
32446;DHT22;18899;50.748;7.102;2023-02-24T15:26:31;7.20;99.90
32446;DHT22;18899;50.748;7.102;2023-02-24T15:29:10;7.10;99.90
32446;DHT22;18899;50.748;7.102;2023-02-24T15:31:36;7.30;99.90
32446;DHT22;18899;50.748;7.102;2023-02-24T15:34:02;7.50;99.90
32446;DHT22;18899;50.748;7.102;2023-02-24T15:36:33;7.40;99.90
32446;DHT22;18899;50.748;7.102;2023-02-24T15:39:02;7.30;99.90
32446;DHT22;18899;50.748;7.102;2023-02-24T15:41:39;7.20;99.90
32446;DHT22;18899;50.748;7.102;2023-02-24T15:44:19;7.20;99.90
32446;DHT22;18899;50.748;7.102;2023-02-24T15:46:47;7.20;99.90
32446;DHT22;18899;50.748;7.102;2023-02-24T15:49:13;7.00;99.90
32446;DHT22;18899;50.748;7.102;2023-02-24T15:51:40;7.00;99.90
32446;DHT22;18899;50.748;7.102;2023-02-24T15:54:11;7.00;99.90
32446;DHT22;18899;50.748;7.102;2023-02-24T15:56:39;6.80;99.90
32446;DHT22;18899;50.748;7.102;2023-02-24T15:59:05;6.80;99.90
32446;DHT22;18899;50.748;7.102;2023-02-24T16:01:32;6.90;99.90
32446;DHT22;18899;50.748;7.102;2023-02-24T16:04:01;6.80;99.90
32446;DHT22;18899;50.748;7.102;2023-02-24T16:06:29;6.70;99.90
32446;DHT22;18899;50.748;7.102;2023-02-24T16:08:55;6.70;99.90
32446;DHT22;18899;50.748;7.102;2023-02-24T16:11:26;6.80;99.90
32446;DHT22;18899;50.748;7.102;2023-02-24T16:13:56;6.80;99.90
32446;DHT22;18899;50.748;7.102;2023-02-24T16:16:23;6.90;99.90
32446;DHT22;18899;50.748;7.102;2023-02-24T16:18:50;6.80;99.90
32446;DHT22;18899;50.748;7.102;2023-02-24T16:21:16;6.90;99.90
32446;DHT22;18899;50.748;7.102;2023-02-24T16:23:41;6.90;99.90
32446;DHT22;18899;50.748;7.102;2023-02-24T16:26:16;7.00;99.90
32446;DHT22;18899;50.748;7.102;2023-02-24T16:28:45;7.10;99.90
32446;DHT22;18899;50.748;7.102;2023-02-24T16:31:13;7.10;99.90
32446;DHT22;18899;50.748;7.102;2023-02-24T16:33:38;7.00;99.90
32446;DHT22;18899;50.748;7.102;2023-02-24T16:36:09;6.90;99.90
32446;DHT22;18899;50.748;7.102;2023-02-24T16:38:36;7.00;99.90
32446;DHT22;18899;50.748;7.102;2023-02-24T16:41:02;7.00;99.90
32446;DHT22;18899;50.748;7.102;2023-02-24T16:43:27;6.70;99.90
32446;DHT22;18899;50.748;7.102;2023-02-24T16:46:00;6.90;99.90
32446;DHT22;18899;50.748;7.102;2023-02-24T16:48:26;6.80;99.90
32446;DHT22;18899;50.748;7.102;2023-02-24T16:50:53;7.00;99.90
32446;DHT22;18899;50.748;7.102;2023-02-24T16:53:21;7.10;99.90
32446;DHT22;18899;50.748;7.102;2023-02-24T16:55:47;7.20;99.90
32446;DHT22;18899;50.748;7.102;2023-02-24T16:58:14;7.30;99.90
32446;DHT22;18899;50.748;7.102;2023-02-24T17:00:42;7.20;99.90
32446;DHT22;18899;50.748;7.102;2023-02-24T17:03:21;6.90;99.90
32446;DHT22;18899;50.748;7.102;2023-02-24T17:05:48;7.00;99.90
32446;DHT22;18899;50.748;7.102;2023-02-24T17:08:14;7.00;99.90
32446;DHT22;18899;50.748;7.102;2023-02-24T17:10:40;7.00;99.90
32446;DHT22;18899;50.748;7.102;2023-02-24T17:13:10;6.90;99.90
32446;DHT22;18899;50.748;7.102;2023-02-24T17:15:36;6.80;99.90
32446;DHT22;18899;50.748;7.102;2023-02-24T17:18:01;6.70;99.90
32446;DHT22;18899;50.748;7.102;2023-02-24T17:20:27;6.80;99.90
32446;DHT22;18899;50.748;7.102;2023-02-24T17:22:53;6.90;99.90
32446;DHT22;18899;50.748;7.102;2023-02-24T17:25:24;6.90;99.90
32446;DHT22;18899;50.748;7.102;2023-02-24T17:27:51;6.90;99.90
32446;DHT22;18899;50.748;7.102;2023-02-24T17:30:23;6.90;99.90
32446;DHT22;18899;50.748;7.102;2023-02-24T17:32:49;7.10;99.90
32446;DHT22;18899;50.748;7.102;2023-02-24T17:35:15;7.30;99.90
32446;DHT22;18899;50.748;7.102;2023-02-24T17:37:41;7.30;99.90
32446;DHT22;18899;50.748;7.102;2023-02-24T17:40:07;7.30;99.90
32446;DHT22;18899;50.748;7.102;2023-02-24T17:42:33;7.40;99.90
32446;DHT22;18899;50.748;7.102;2023-02-24T17:44:58;7.40;99.90
32446;DHT22;18899;50.748;7.102;2023-02-24T17:47:24;7.40;99.90
32446;DHT22;18899;50.748;7.102;2023-02-24T17:49:50;7.20;99.90
32446;DHT22;18899;50.748;7.102;2023-02-24T17:52:16;7.20;99.90
32446;DHT22;18899;50.748;7.102;2023-02-24T17:54:42;7.20;99.90
32446;DHT22;18899;50.748;7.102;2023-02-24T17:57:07;7.10;99.90
32446;DHT22;18899;50.748;7.102;2023-02-24T17:59:34;6.80;99.90
32446;DHT22;18899;50.748;7.102;2023-02-24T18:02:00;6.80;99.90
32446;DHT22;18899;50.748;7.102;2023-02-24T18:04:27;6.70;99.90
32446;DHT22;18899;50.748;7.102;2023-02-24T18:06:52;6.70;99.90
32446;DHT22;18899;50.748;7.102;2023-02-24T18:09:18;6.90;99.90
32446;DHT22;18899;50.748;7.102;2023-02-24T18:11:43;6.90;99.90
32446;DHT22;18899;50.748;7.102;2023-02-24T18:14:10;6.80;99.90
32446;DHT22;18899;50.748;7.102;2023-02-24T18:16:36;6.80;99.90
32446;DHT22;18899;50.748;7.102;2023-02-24T18:19:02;7.00;99.90
32446;DHT22;18899;50.748;7.102;2023-02-24T18:21:28;6.80;99.90
32446;DHT22;18899;50.748;7.102;2023-02-24T18:23:54;6.60;99.90
32446;DHT22;18899;50.748;7.102;2023-02-24T18:26:19;6.70;99.90
32446;DHT22;18899;50.748;7.102;2023-02-24T18:28:46;6.70;99.90